createdAt,value
2017-12-26T00:00:33.135Z,97280.85
2017-12-26T00:03:02.229Z,97289.39
2017-12-26T00:05:30.977Z,97280.45
2017-12-26T00:07:59.318Z,97272.03
2017-12-26T00:10:27.643Z,97265.78
2017-12-26T00:12:55.993Z,97269.61
2017-12-26T00:15:24.367Z,97269.61
2017-12-26T00:17:52.691Z,97267.91
2017-12-26T00:20:21.809Z,97261.97
2017-12-26T00:22:50.162Z,97256.87
2017-12-26T00:25:18.518Z,97251.48
2017-12-26T00:27:46.866Z,97242.14
2017-12-26T00:30:15.208Z,97231.59
2017-12-26T00:32:44.339Z,97234.16
2017-12-26T00:35:12.698Z,97236.22
2017-12-26T00:37:41.041Z,97237.52
2017-12-26T00:40:09.377Z,97224.45
2017-12-26T00:42:37.716Z,97224.04
2017-12-26T00:45:06.802Z,97225.70
2017-12-26T00:47:35.119Z,97216.41
2017-12-26T00:50:03.456Z,97214.27
2017-12-26T00:52:32.552Z,97208.77
2017-12-26T00:55:00.888Z,97202.05
2017-12-26T00:57:29.211Z,97203.69
2017-12-26T00:59:58.309Z,97205.33
2017-12-26T01:02:26.649Z,97201.52
2017-12-26T01:04:55.044Z,97185.47
2017-12-26T01:07:24.326Z,97185.89
2017-12-26T01:09:52.668Z,97198.09
2017-12-26T01:12:21.010Z,97200.28
2017-12-26T01:14:50.092Z,97193.55
2017-12-26T01:17:18.414Z,97185.99
2017-12-26T01:19:46.753Z,97179.60
2017-12-26T01:22:15.839Z,97183.42
2017-12-26T01:24:44.172Z,97182.64
2017-12-26T01:27:12.506Z,97175.45
2017-12-26T01:29:40.846Z,97173.78
2017-12-26T01:32:09.177Z,97177.14
2017-12-26T01:34:37.521Z,97176.23
2017-12-26T01:37:05.860Z,97171.57
2017-12-26T01:39:34.198Z,97170.73
2017-12-26T01:42:02.536Z,97165.66
2017-12-26T01:44:30.857Z,97161.36
2017-12-26T01:46:59.960Z,97154.14
2017-12-26T01:49:28.301Z,97153.72
2017-12-26T01:51:56.640Z,97146.52
2017-12-26T01:54:24.998Z,97146.05
2017-12-26T01:56:54.605Z,97136.80
2017-12-26T01:59:23.695Z,97131.27
2017-12-26T02:01:52.042Z,97127.47
2017-12-26T02:04:20.374Z,97121.91
2017-12-26T02:06:49.061Z,97118.91
2017-12-26T02:09:18.253Z,97115.48
2017-12-26T02:11:46.593Z,97104.03
2017-12-26T02:14:14.937Z,97105.30
2017-12-26T02:16:43.900Z,97092.61
2017-12-26T02:19:12.232Z,97097.66
2017-12-26T02:21:40.569Z,97092.66
2017-12-26T02:24:08.891Z,97090.95
2017-12-26T02:26:37.221Z,97094.67
2017-12-26T02:29:05.563Z,97091.61
2017-12-26T02:31:33.890Z,97095.07
2017-12-26T02:34:02.227Z,97089.98
2017-12-26T02:36:31.352Z,97085.81
2017-12-26T02:38:59.728Z,97087.53
2017-12-26T02:41:28.063Z,97089.69
2017-12-26T02:43:56.432Z,97083.42
2017-12-26T02:46:24.999Z,97075.86
2017-12-26T02:48:53.339Z,97080.13
2017-12-26T02:51:21.659Z,97076.28
2017-12-26T02:53:49.988Z,97069.53
2017-12-26T02:56:18.362Z,97070.38
2017-12-26T02:58:46.706Z,97062.75
2017-12-26T03:01:15.051Z,97052.96
2017-12-26T03:03:44.397Z,97040.71
2017-12-26T03:06:12.737Z,97039.47
2017-12-26T03:08:41.067Z,97043.70
2017-12-26T03:11:09.394Z,97028.85
2017-12-26T03:13:37.731Z,97025.50
2017-12-26T03:16:06.983Z,97023.84
2017-12-26T03:18:35.313Z,97015.79
2017-12-26T03:21:03.642Z,97007.31
2017-12-26T03:23:32.005Z,97004.31
2017-12-26T03:26:00.362Z,97001.80
2017-12-26T03:28:28.712Z,96989.96
2017-12-26T03:30:57.045Z,96984.39
2017-12-26T03:33:25.395Z,96981.40
2017-12-26T03:35:53.719Z,96983.11
2017-12-26T03:38:22.073Z,96978.06
2017-12-26T03:40:50.427Z,96973.41
2017-12-26T03:43:18.777Z,96964.95
2017-12-26T03:45:47.125Z,96968.75
2017-12-26T03:48:15.492Z,96960.72
2017-12-26T03:50:43.843Z,96951.06
2017-12-26T03:53:12.188Z,96947.28
2017-12-26T03:55:40.537Z,96945.09
2017-12-26T03:58:08.865Z,96943.03
2017-12-26T04:00:37.202Z,96941.30
2017-12-26T04:03:06.308Z,96946.89
2017-12-26T04:05:34.638Z,96943.58
2017-12-26T04:08:02.997Z,96942.69
2017-12-26T04:10:31.341Z,96940.08
2017-12-26T04:13:00.449Z,96938.08
2017-12-26T04:15:28.797Z,96938.91
2017-12-26T04:17:57.138Z,96928.31
2017-12-26T04:20:26.073Z,96929.63
2017-12-26T04:22:55.200Z,96920.33
2017-12-26T04:25:23.587Z,96917.33
2017-12-26T04:27:52.147Z,96911.89
2017-12-26T04:30:21.266Z,96903.42
2017-12-26T04:32:49.596Z,96900.92
2017-12-26T04:35:17.975Z,96896.22
2017-12-26T04:37:47.093Z,96894.53
2017-12-26T04:40:16.349Z,96886.98
2017-12-26T04:42:44.672Z,96889.53
2017-12-26T04:45:13.024Z,96887.38
2017-12-26T04:47:41.358Z,96882.73
2017-12-26T04:50:09.695Z,96878.45
2017-12-26T04:52:38.786Z,96878.09
2017-12-26T04:55:07.131Z,96881.91
2017-12-26T04:57:35.479Z,96889.48
2017-12-26T05:00:03.815Z,96877.16
2017-12-26T05:02:32.918Z,96874.24
2017-12-26T05:05:01.290Z,96875.14
2017-12-26T05:07:29.620Z,96868.78
2017-12-26T05:09:57.962Z,96866.32
2017-12-26T05:12:26.331Z,96843.11
2017-12-26T05:14:55.454Z,96840.58
2017-12-26T05:17:23.794Z,96830.84
2017-12-26T05:19:52.147Z,96829.17
2017-12-26T05:22:20.498Z,96819.05
2017-12-26T05:24:48.840Z,96809.33
2017-12-26T05:27:17.935Z,96804.30
2017-12-26T05:29:46.304Z,96802.63
2017-12-26T05:32:14.640Z,96805.58
2017-12-26T05:34:42.980Z,96800.94
2017-12-26T05:37:11.353Z,96791.64
2017-12-26T05:39:39.705Z,96786.13
2017-12-26T05:42:08.040Z,96783.59
2017-12-26T05:44:36.377Z,96780.67
2017-12-26T05:47:04.728Z,96775.62
2017-12-26T05:49:33.067Z,96771.00
2017-12-26T05:52:01.403Z,96765.06
2017-12-26T05:54:29.752Z,96762.56
2017-12-26T05:56:58.090Z,96754.52
2017-12-26T05:59:27.209Z,96752.84
2017-12-26T06:01:55.539Z,96759.19
2017-12-26T06:04:23.884Z,96750.72
2017-12-26T06:06:52.234Z,96741.02
2017-12-26T06:09:20.581Z,96741.44
2017-12-26T06:11:49.259Z,96743.55
2017-12-26T06:14:18.355Z,96740.16
2017-12-26T06:16:48.703Z,96748.60
2017-12-26T06:19:17.018Z,96736.77
2017-12-26T06:21:45.338Z,96738.45
2017-12-26T06:24:13.665Z,96734.62
2017-12-26T06:26:43.043Z,96726.59
2017-12-26T06:29:11.364Z,96721.53
2017-12-26T06:31:39.702Z,96708.42
2017-12-26T06:34:08.052Z,96709.66
2017-12-26T06:36:36.364Z,96710.08
2017-12-26T06:39:04.684Z,96714.31
2017-12-26T06:41:33.028Z,96708.83
2017-12-26T06:44:01.366Z,96699.53
2017-12-26T06:46:29.685Z,96699.13
2017-12-26T06:48:57.998Z,96684.30
2017-12-26T06:51:27.114Z,96677.95
2017-12-26T06:53:55.446Z,96683.91
2017-12-26T06:56:23.774Z,96680.47
2017-12-26T06:58:53.432Z,96689.79
2017-12-26T07:01:21.777Z,96691.49
2017-12-26T07:03:50.129Z,96673.75
2017-12-26T07:06:18.451Z,96644.19
2017-12-26T07:08:46.771Z,96636.94
2017-12-26T07:11:15.095Z,96641.48
2017-12-26T07:13:43.530Z,96633.45
2017-12-26T07:16:11.859Z,96633.06
2017-12-26T07:18:40.196Z,96628.76
2017-12-26T07:21:14.748Z,96619.81
2017-12-26T07:23:43.099Z,96607.09
2017-12-26T07:26:11.418Z,96604.95
2017-12-26T07:28:40.445Z,96604.09
2017-12-26T07:31:08.775Z,96606.55
2017-12-26T07:33:37.102Z,96606.11
2017-12-26T07:36:06.190Z,96600.67
2017-12-26T07:38:34.523Z,96591.69
2017-12-26T07:41:02.860Z,96575.92
2017-12-26T07:43:31.958Z,96590.22
2017-12-26T07:46:00.278Z,96598.30
2017-12-26T07:48:28.619Z,96604.73
2017-12-26T07:50:57.721Z,96603.01
2017-12-26T07:53:26.065Z,96610.41
2017-12-26T07:55:54.400Z,96590.58
2017-12-26T07:58:22.738Z,96594.98
2017-12-26T08:00:51.827Z,96596.20
2017-12-26T08:03:20.155Z,96595.41
2017-12-26T08:05:48.470Z,96586.98
2017-12-26T08:08:16.799Z,96572.55
2017-12-26T08:10:45.120Z,96575.56
2017-12-26T08:13:14.702Z,96565.34
2017-12-26T08:15:43.038Z,96569.48
2017-12-26T08:18:11.388Z,96568.12
2017-12-26T08:20:39.719Z,96567.65
2017-12-26T08:23:08.043Z,96557.86
2017-12-26T08:25:36.379Z,96557.09
2017-12-26T08:28:04.703Z,96552.36
2017-12-26T08:30:33.052Z,96551.09
2017-12-26T08:33:01.392Z,96549.34
2017-12-26T08:35:29.745Z,96547.23
2017-12-26T08:37:58.084Z,96534.94
2017-12-26T08:40:26.433Z,96531.92
2017-12-26T08:42:54.813Z,96534.84
2017-12-26T08:45:23.892Z,96528.86
2017-12-26T08:47:52.226Z,96520.45
2017-12-26T08:50:20.561Z,96526.14
2017-12-26T08:52:48.892Z,96518.31
2017-12-26T08:55:17.255Z,96513.25
2017-12-26T08:57:45.594Z,96510.49
2017-12-26T09:00:13.932Z,96517.23
2017-12-26T09:02:42.280Z,96512.10
2017-12-26T09:05:11.485Z,96522.27
2017-12-26T09:07:40.960Z,96516.73
2017-12-26T09:10:09.310Z,96522.67
2017-12-26T09:12:37.640Z,96508.29
2017-12-26T09:15:05.968Z,96519.15
2017-12-26T09:17:34.301Z,96518.70
2017-12-26T09:20:02.644Z,96526.31
2017-12-26T09:22:30.995Z,96519.22
2017-12-26T09:25:00.097Z,96516.61
2017-12-26T09:27:28.468Z,96517.18
2017-12-26T09:29:56.812Z,96519.20
2017-12-26T09:32:25.153Z,96521.77
2017-12-26T09:34:54.070Z,96519.11
2017-12-26T09:37:22.429Z,96519.05
2017-12-26T09:39:51.545Z,96499.56
2017-12-26T09:42:19.897Z,96504.47
2017-12-26T09:44:48.253Z,96501.41
2017-12-26T09:47:16.596Z,96500.89
2017-12-26T09:49:45.720Z,96495.98
2017-12-26T09:52:14.813Z,96493.37
2017-12-26T09:54:43.906Z,96490.13
2017-12-26T09:57:13.060Z,96491.47
2017-12-26T09:59:41.813Z,96501.03
2017-12-26T10:02:10.151Z,96513.72
2017-12-26T10:04:39.288Z,96527.75
2017-12-26T10:07:07.641Z,96535.39
2017-12-26T10:09:36.750Z,96523.72
2017-12-26T10:12:05.104Z,96512.80
2017-12-26T10:14:33.474Z,96511.88
2017-12-26T10:17:02.048Z,96511.36
2017-12-26T10:19:30.393Z,96513.25
2017-12-26T10:21:58.701Z,96499.11
2017-12-26T10:24:27.633Z,96497.22
2017-12-26T10:26:55.959Z,96517.28
2017-12-26T10:29:24.308Z,96544.91
2017-12-26T10:31:52.648Z,96559.62
2017-12-26T10:34:21.761Z,96575.23
2017-12-26T10:36:50.087Z,96566.41
2017-12-26T10:39:18.415Z,96560.50
2017-12-26T10:41:46.749Z,96558.91
2017-12-26T10:44:15.098Z,96560.06
2017-12-26T10:46:44.307Z,96574.66
2017-12-26T10:49:12.654Z,96591.39
2017-12-26T10:51:40.989Z,96575.72
2017-12-26T10:54:09.318Z,96585.04
2017-12-26T10:56:38.378Z,96587.27
2017-12-26T10:59:07.508Z,96600.49
2017-12-26T11:01:35.854Z,96605.30
2017-12-26T11:04:04.202Z,96603.50
2017-12-26T11:06:32.531Z,96588.33
2017-12-26T11:09:00.841Z,96583.16
2017-12-26T11:11:29.207Z,96588.86
2017-12-26T11:13:57.560Z,96585.05
2017-12-26T11:16:25.902Z,96587.58
2017-12-26T11:18:54.266Z,96583.17
2017-12-26T11:21:22.608Z,96582.69
2017-12-26T11:23:50.950Z,96587.92
2017-12-26T11:26:19.281Z,96572.56
2017-12-26T11:28:47.627Z,96574.72
2017-12-26T11:31:15.984Z,96584.06
2017-12-26T11:33:44.321Z,96578.33
2017-12-26T11:36:12.654Z,96584.62
2017-12-26T11:38:41.739Z,96586.20
2017-12-26T11:41:10.848Z,96585.31
2017-12-26T11:43:39.193Z,96582.53
2017-12-26T11:46:07.520Z,96577.23
2017-12-26T11:48:35.939Z,96588.75
2017-12-26T11:51:04.267Z,96582.84
2017-12-26T11:53:32.596Z,96587.51
2017-12-26T11:56:00.981Z,96585.77
2017-12-26T11:58:29.313Z,96585.53
2017-12-26T12:00:57.660Z,96584.36
2017-12-26T12:03:27.069Z,96590.67
2017-12-26T12:05:55.401Z,96592.66
2017-12-26T12:08:23.734Z,96593.05
2017-12-26T12:10:52.073Z,96596.78
2017-12-26T12:13:20.397Z,96602.02
2017-12-26T12:15:48.758Z,96599.64
2017-12-26T12:18:17.098Z,96608.11
2017-12-26T12:20:45.437Z,96597.77
2017-12-26T12:23:13.755Z,96606.81
2017-12-26T12:25:42.093Z,96601.35
2017-12-26T12:28:10.411Z,96615.88
2017-12-26T12:30:38.800Z,96611.46
2017-12-26T12:33:07.154Z,96614.22
2017-12-26T12:35:35.475Z,96611.88
2017-12-26T12:38:03.810Z,96611.75
2017-12-26T12:40:32.129Z,96617.76
2017-12-26T12:43:01.180Z,96612.97
2017-12-26T12:45:29.603Z,96606.89
2017-12-26T12:47:57.932Z,96613.22
2017-12-26T12:50:26.247Z,96625.61
2017-12-26T12:52:54.605Z,96626.51
2017-12-26T12:55:22.958Z,96625.31
2017-12-26T12:57:51.315Z,96626.55
2017-12-26T13:00:19.649Z,96630.86
2017-12-26T13:02:48.735Z,96630.45
2017-12-26T13:05:17.060Z,96635.30
2017-12-26T13:07:45.410Z,96636.20
2017-12-26T13:10:14.525Z,96642.50
2017-12-26T13:12:42.889Z,96637.95
2017-12-26T13:15:11.234Z,96633.33
2017-12-26T13:17:39.577Z,96632.77
2017-12-26T13:20:07.925Z,96624.14
2017-12-26T13:22:37.049Z,96635.81
2017-12-26T13:25:05.432Z,96643.82
2017-12-26T13:27:33.770Z,96643.75
2017-12-26T13:30:02.876Z,96651.50
2017-12-26T13:32:31.207Z,96648.23
2017-12-26T13:34:59.566Z,96659.58
2017-12-26T13:37:27.900Z,96657.38
2017-12-26T13:39:56.238Z,96653.40
2017-12-26T13:42:24.589Z,96660.28
2017-12-26T13:44:52.903Z,96656.02
2017-12-26T13:47:21.233Z,96667.06
2017-12-26T13:49:49.595Z,96673.97
2017-12-26T13:52:17.919Z,96669.70
2017-12-26T13:54:46.257Z,96678.83
2017-12-26T13:57:14.572Z,96670.04
2017-12-26T13:59:42.891Z,96675.45
2017-12-26T14:02:11.971Z,96681.36
2017-12-26T14:04:40.311Z,96684.04
2017-12-26T14:07:08.648Z,96682.40
2017-12-26T14:09:37.754Z,96675.10
2017-12-26T14:12:06.070Z,96675.44
2017-12-26T14:14:34.396Z,96664.81
2017-12-26T14:17:03.486Z,96664.89
2017-12-26T14:19:31.813Z,96674.48
2017-12-26T14:22:00.150Z,96675.50
2017-12-26T14:24:29.242Z,96662.42
2017-12-26T14:26:57.582Z,96655.53
2017-12-26T14:29:25.957Z,96669.69
2017-12-26T14:31:54.271Z,96675.14
2017-12-26T14:34:23.608Z,96677.98
2017-12-26T14:36:51.998Z,96677.20
2017-12-26T14:39:20.348Z,96670.16
2017-12-26T14:41:48.662Z,96670.52
2017-12-26T14:44:17.044Z,96678.41
2017-12-26T14:46:45.496Z,96688.26
2017-12-26T14:49:13.822Z,96686.08
2017-12-26T14:51:42.150Z,96693.73
2017-12-26T14:54:10.484Z,96692.52
2017-12-26T14:56:39.750Z,96698.84
2017-12-26T14:59:08.094Z,96687.42
2017-12-26T15:01:36.439Z,96696.50
2017-12-26T15:04:04.785Z,96701.55
2017-12-26T15:06:33.139Z,96699.88
2017-12-26T15:09:01.536Z,96697.80
2017-12-26T15:11:29.867Z,96693.47
2017-12-26T15:13:58.969Z,96701.13
2017-12-26T15:16:27.286Z,96699.95
2017-12-26T15:18:55.621Z,96702.55
2017-12-26T15:21:24.714Z,96707.30
2017-12-26T15:23:53.040Z,96709.78
2017-12-26T15:26:21.435Z,96671.50
2017-12-26T15:28:49.779Z,96691.17
2017-12-26T15:31:18.121Z,96695.91
2017-12-26T15:33:47.214Z,96689.86
2017-12-26T15:36:15.555Z,96688.53
2017-12-26T15:38:43.878Z,96687.88
2017-12-26T15:41:12.986Z,96696.61
2017-12-26T15:43:41.344Z,96692.41
2017-12-26T15:46:09.688Z,96695.72
2017-12-26T15:48:38.055Z,96694.05
2017-12-26T15:51:06.383Z,96689.84
2017-12-26T15:53:35.467Z,96696.05
2017-12-26T15:56:04.503Z,96683.31
2017-12-26T15:58:32.819Z,96694.29
2017-12-26T16:01:01.140Z,96694.69
2017-12-26T16:03:29.470Z,96704.02
2017-12-26T16:05:57.812Z,96704.97
2017-12-26T16:08:26.136Z,96706.26
2017-12-26T16:10:54.475Z,96703.02
2017-12-26T16:13:22.816Z,96696.38
2017-12-26T16:15:51.902Z,96698.05
2017-12-26T16:18:20.248Z,96708.63
2017-12-26T16:20:48.595Z,96703.53
2017-12-26T16:23:16.943Z,96704.28
2017-12-26T16:25:45.351Z,96704.85
2017-12-26T16:28:13.690Z,96697.19
2017-12-26T16:30:42.795Z,96699.65
2017-12-26T16:33:11.129Z,96701.00
2017-12-26T16:35:39.483Z,96703.16
2017-12-26T16:38:07.814Z,96705.40
2017-12-26T16:40:36.138Z,96711.74
2017-12-26T16:43:04.459Z,96708.68
2017-12-26T16:45:32.792Z,96716.41
2017-12-26T16:48:01.128Z,96709.77
2017-12-26T16:50:29.480Z,96718.30
2017-12-26T16:52:57.828Z,96709.88
2017-12-26T16:55:27.055Z,96705.65
2017-12-26T16:57:55.398Z,96707.75
2017-12-26T17:00:24.572Z,96701.39
2017-12-26T17:02:52.923Z,96707.25
2017-12-26T17:05:21.686Z,96697.97
2017-12-26T17:07:50.033Z,96696.69
2017-12-26T17:10:18.356Z,96695.42
2017-12-26T17:12:46.713Z,96689.63
2017-12-26T17:15:15.065Z,96682.71
2017-12-26T17:17:43.401Z,96679.72
2017-12-26T17:20:11.749Z,96680.45
2017-12-26T17:22:40.088Z,96681.67
2017-12-26T17:25:08.414Z,96683.84
2017-12-26T17:27:36.762Z,96674.11
2017-12-26T17:30:05.105Z,96669.89
2017-12-26T17:32:34.218Z,96672.88
2017-12-26T17:35:02.544Z,96665.25
2017-12-26T17:37:30.915Z,96665.23
2017-12-26T17:39:59.265Z,96662.20
2017-12-26T17:42:27.599Z,96666.48
2017-12-26T17:44:55.960Z,96655.48
2017-12-26T17:47:25.070Z,96652.00
2017-12-26T17:49:53.421Z,96655.91
2017-12-26T17:52:21.754Z,96659.75
2017-12-26T17:54:50.084Z,96659.73
2017-12-26T17:57:18.440Z,96658.47
2017-12-26T17:59:47.738Z,96651.61
2017-12-26T18:02:16.084Z,96656.23
2017-12-26T18:04:44.428Z,96659.16
2017-12-26T18:07:12.767Z,96649.77
2017-12-26T18:09:41.090Z,96649.73
2017-12-26T18:12:09.418Z,96650.09
2017-12-26T18:14:38.529Z,96651.83
2017-12-26T18:17:06.888Z,96656.88
2017-12-26T18:19:35.212Z,96644.27
2017-12-26T18:22:03.592Z,96653.17
2017-12-26T18:24:31.936Z,96646.84
2017-12-26T18:27:00.285Z,96639.14
2017-12-26T18:29:29.528Z,96636.70
2017-12-26T18:31:57.845Z,96633.39
2017-12-26T18:34:26.937Z,96630.84
2017-12-26T18:36:55.279Z,96628.19
2017-12-26T18:39:25.460Z,96623.91
2017-12-26T18:41:53.797Z,96618.84
2017-12-26T18:44:22.157Z,96620.97
2017-12-26T18:46:50.519Z,96613.78
2017-12-26T18:49:20.359Z,96624.37
2017-12-26T18:51:49.569Z,96626.02
2017-12-26T18:54:17.976Z,96626.55
2017-12-26T18:56:46.582Z,96627.74
2017-12-26T18:59:15.202Z,96627.84
2017-12-26T19:01:43.619Z,96633.35
2017-12-26T19:04:12.085Z,96625.77
2017-12-26T19:06:40.597Z,96621.88
2017-12-26T19:09:09.063Z,96611.30
2017-12-26T19:11:38.048Z,96607.95
2017-12-26T19:14:07.173Z,96597.78
2017-12-26T19:16:35.564Z,96594.03
2017-12-26T19:19:03.897Z,96597.03
2017-12-26T19:21:32.254Z,96585.63
2017-12-26T19:24:00.642Z,96587.26
2017-12-26T19:26:30.733Z,96582.52
2017-12-26T19:29:00.176Z,96582.23
2017-12-26T19:31:28.581Z,96580.66
2017-12-26T19:33:57.116Z,96570.78
2017-12-26T19:36:25.505Z,96567.50
2017-12-26T19:38:54.197Z,96565.71
2017-12-26T19:41:22.619Z,96562.36
2017-12-26T19:43:51.031Z,96538.08
2017-12-26T19:46:19.409Z,96554.05
2017-12-26T19:48:47.869Z,96557.11
2017-12-26T19:51:16.335Z,96547.02
2017-12-26T19:53:44.827Z,96543.17
2017-12-26T19:56:13.671Z,96542.73
2017-12-26T19:58:42.815Z,96542.72
2017-12-26T20:01:12.735Z,96540.09
2017-12-26T20:03:41.465Z,96537.61
2017-12-26T20:06:09.937Z,96542.27
2017-12-26T20:08:39.570Z,96541.95
2017-12-26T20:11:08.917Z,96533.46
2017-12-26T20:13:37.881Z,96523.72
2017-12-26T20:16:07.124Z,96519.06
2017-12-26T20:18:36.321Z,96503.98
2017-12-26T20:21:05.584Z,96497.94
2017-12-26T20:23:34.753Z,96493.28
2017-12-26T20:26:04.231Z,96498.83
2017-12-26T20:28:39.145Z,96493.45
2017-12-26T20:31:08.692Z,96493.42
2017-12-26T20:33:38.375Z,96495.56
2017-12-26T20:36:08.059Z,96496.02
2017-12-26T20:38:37.732Z,96495.19
2017-12-26T20:41:07.413Z,96494.37
2017-12-26T20:43:37.131Z,96488.84
2017-12-26T20:46:06.884Z,96482.17
2017-12-26T20:48:36.728Z,96469.02
2017-12-26T20:51:06.295Z,96468.87
2017-12-26T20:53:36.173Z,96464.59
2017-12-26T20:56:05.852Z,96457.70
2017-12-26T20:58:35.573Z,96456.50
2017-12-26T21:01:05.529Z,96435.16
2017-12-26T21:03:36.187Z,96429.09
2017-12-26T21:06:06.051Z,96420.94
2017-12-26T21:08:35.698Z,96414.59
2017-12-26T21:11:06.218Z,96419.60
2017-12-26T21:13:36.639Z,96425.82
2017-12-26T21:16:06.601Z,96420.23
2017-12-26T21:18:36.377Z,96420.52
2017-12-26T21:21:06.199Z,96414.55
2017-12-26T21:23:35.974Z,96406.01
2017-12-26T21:26:05.791Z,96402.05
2017-12-26T21:28:35.655Z,96391.28
2017-12-26T21:31:05.465Z,96391.62
2017-12-26T21:33:35.253Z,96387.92
2017-12-26T21:36:04.995Z,96385.73
2017-12-26T21:38:35.138Z,96391.23
2017-12-26T21:41:04.994Z,96385.36
2017-12-26T21:43:34.707Z,96381.50
2017-12-26T21:46:04.553Z,96381.30
2017-12-26T21:48:34.456Z,96375.60
2017-12-26T21:51:04.137Z,96373.02
2017-12-26T21:53:34.583Z,96371.61
2017-12-26T21:56:04.226Z,96377.47
2017-12-26T21:58:33.690Z,96376.10
2017-12-26T22:01:02.854Z,96365.48
2017-12-26T22:03:32.273Z,96360.91
2017-12-26T22:06:01.828Z,96362.08
2017-12-26T22:08:31.159Z,96357.91
2017-12-26T22:11:00.807Z,96350.02
2017-12-26T22:13:30.518Z,96355.31
2017-12-26T22:15:59.975Z,96345.75
2017-12-26T22:18:29.641Z,96336.77
2017-12-26T22:20:58.648Z,96339.28
2017-12-26T22:23:28.911Z,96334.80
2017-12-26T22:26:01.400Z,96334.46
2017-12-26T22:28:33.011Z,96327.48
2017-12-26T22:31:02.328Z,96321.44
2017-12-26T22:33:31.993Z,96313.88
2017-12-26T22:36:00.668Z,96309.67
2017-12-26T22:38:29.901Z,96310.39
2017-12-26T22:40:58.489Z,96302.38
2017-12-26T22:43:27.662Z,96310.04
2017-12-26T22:45:56.057Z,96299.38
2017-12-26T22:48:24.448Z,96288.33
2017-12-26T22:50:52.790Z,96291.02
2017-12-26T22:53:21.160Z,96286.67
2017-12-26T22:55:49.498Z,96288.06
2017-12-26T22:58:17.852Z,96288.47
2017-12-26T23:00:46.221Z,96283.70
2017-12-26T23:03:14.570Z,96272.48
2017-12-26T23:05:44.306Z,96262.27
2017-12-26T23:08:12.626Z,96268.16
2017-12-26T23:10:41.232Z,96265.25
2017-12-26T23:13:09.574Z,96268.05
2017-12-26T23:15:43.453Z,96257.39
2017-12-26T23:18:17.360Z,96253.13
2017-12-26T23:20:51.201Z,96247.22
2017-12-26T23:23:24.987Z,96239.11
2017-12-26T23:25:58.809Z,96238.28
2017-12-26T23:28:33.729Z,96214.53
2017-12-26T23:31:07.612Z,96210.67
2017-12-26T23:33:41.393Z,96195.91
2017-12-26T23:36:15.130Z,96186.56
2017-12-26T23:38:48.898Z,96180.18
2017-12-26T23:41:22.669Z,96184.75
2017-12-26T23:43:56.462Z,96184.25
2017-12-26T23:46:30.334Z,96180.83
2017-12-26T23:49:04.121Z,96180.48
2017-12-26T23:51:37.952Z,96184.20
2017-12-26T23:54:11.710Z,96176.15
2017-12-26T23:56:46.411Z,96174.87
